sensor_id;sensor_type;location;lat;lon;timestamp;temperature;humidity
44435;DHT22;30138;20.964;105.830;2023-04-16T00:04:16;26.40;99.90
44435;DHT22;30138;20.964;105.830;2023-04-16T00:09:25;26.40;99.90
44435;DHT22;30138;20.964;105.830;2023-04-16T00:14:31;26.40;99.90
44435;DHT22;30138;20.964;105.830;2023-04-16T00:19:39;26.30;99.90
44435;DHT22;30138;20.964;105.830;2023-04-16T00:24:48;26.30;99.90
44435;DHT22;30138;20.964;105.830;2023-04-16T00:29:55;26.40;99.90
44435;DHT22;30138;20.964;105.830;2023-04-16T00:35:02;26.40;99.90
44435;DHT22;30138;20.964;105.830;2023-04-16T00:40:11;26.40;99.90
44435;DHT22;30138;20.964;105.830;2023-04-16T00:45:19;26.40;99.90
44435;DHT22;30138;20.964;105.830;2023-04-16T00:50:27;26.40;99.90
44435;DHT22;30138;20.964;105.830;2023-04-16T00:55:36;26.40;99.90
44435;DHT22;30138;20.964;105.830;2023-04-16T01:00:44;26.50;99.90
44435;DHT22;30138;20.964;105.830;2023-04-16T01:05:52;26.50;99.90
44435;DHT22;30138;20.964;105.830;2023-04-16T01:11:00;26.50;99.90
44435;DHT22;30138;20.964;105.830;2023-04-16T01:16:09;26.50;99.90
44435;DHT22;30138;20.964;105.830;2023-04-16T01:21:19;26.50;99.90
44435;DHT22;30138;20.964;105.830;2023-04-16T01:26:27;26.50;99.90
44435;DHT22;30138;20.964;105.830;2023-04-16T01:31:34;26.60;99.90
44435;DHT22;30138;20.964;105.830;2023-04-16T01:37:03;26.60;99.90
44435;DHT22;30138;20.964;105.830;2023-04-16T01:42:18;26.60;99.90
44435;DHT22;30138;20.964;105.830;2023-04-16T01:47:26;26.60;99.90
44435;DHT22;30138;20.964;105.830;2023-04-16T01:52:35;26.60;99.90
44435;DHT22;30138;20.964;105.830;2023-04-16T01:57:42;26.70;99.90
44435;DHT22;30138;20.964;105.830;2023-04-16T02:02:51;26.70;99.90
44435;DHT22;30138;20.964;105.830;2023-04-16T02:08:03;26.70;99.90
44435;DHT22;30138;20.964;105.830;2023-04-16T02:13:10;26.70;99.90
44435;DHT22;30138;20.964;105.830;2023-04-16T02:18:17;26.80;99.90
44435;DHT22;30138;20.964;105.830;2023-04-16T02:23:28;26.80;99.90
44435;DHT22;30138;20.964;105.830;2023-04-16T02:28:36;26.90;99.90
44435;DHT22;30138;20.964;105.830;2023-04-16T02:33:45;26.90;99.90
44435;DHT22;30138;20.964;105.830;2023-04-16T02:38:55;26.90;99.90
44435;DHT22;30138;20.964;105.830;2023-04-16T02:44:02;27.00;99.90
44435;DHT22;30138;20.964;105.830;2023-04-16T02:49:08;27.00;99.90
44435;DHT22;30138;20.964;105.830;2023-04-16T02:54:18;27.00;99.90
44435;DHT22;30138;20.964;105.830;2023-04-16T02:59:26;27.00;99.90
44435;DHT22;30138;20.964;105.830;2023-04-16T03:04:34;27.10;99.90
44435;DHT22;30138;20.964;105.830;2023-04-16T03:09:45;27.10;99.90
44435;DHT22;30138;20.964;105.830;2023-04-16T03:14:52;27.10;99.90
44435;DHT22;30138;20.964;105.830;2023-04-16T03:19:59;27.10;99.90
44435;DHT22;30138;20.964;105.830;2023-04-16T03:25:09;27.10;99.90
44435;DHT22;30138;20.964;105.830;2023-04-16T03:30:17;27.10;99.90
44435;DHT22;30138;20.964;105.830;2023-04-16T03:35:25;27.20;99.90
44435;DHT22;30138;20.964;105.830;2023-04-16T03:40:38;27.20;99.90
44435;DHT22;30138;20.964;105.830;2023-04-16T03:45:45;27.20;99.90
44435;DHT22;30138;20.964;105.830;2023-04-16T03:50:56;27.20;99.90
44435;DHT22;30138;20.964;105.830;2023-04-16T03:56:07;27.20;99.90
44435;DHT22;30138;20.964;105.830;2023-04-16T04:01:14;27.20;99.90
44435;DHT22;30138;20.964;105.830;2023-04-16T04:06:22;27.30;99.90
44435;DHT22;30138;20.964;105.830;2023-04-16T04:11:33;27.20;99.90
44435;DHT22;30138;20.964;105.830;2023-04-16T04:16:40;27.20;99.90
44435;DHT22;30138;20.964;105.830;2023-04-16T04:21:48;27.30;99.90
44435;DHT22;30138;20.964;105.830;2023-04-16T04:26:56;27.30;99.90
44435;DHT22;30138;20.964;105.830;2023-04-16T04:32:05;27.40;99.90
44435;DHT22;30138;20.964;105.830;2023-04-16T04:37:12;27.40;99.90
44435;DHT22;30138;20.964;105.830;2023-04-16T04:42:23;27.50;99.90
44435;DHT22;30138;20.964;105.830;2023-04-16T04:47:45;27.50;99.90
44435;DHT22;30138;20.964;105.830;2023-04-16T04:52:56;27.50;99.90
44435;DHT22;30138;20.964;105.830;2023-04-16T04:58:05;27.60;99.90
44435;DHT22;30138;20.964;105.830;2023-04-16T05:03:15;27.70;99.90
44435;DHT22;30138;20.964;105.830;2023-04-16T05:08:25;27.70;99.90
44435;DHT22;30138;20.964;105.830;2023-04-16T05:13:35;27.70;99.90
44435;DHT22;30138;20.964;105.830;2023-04-16T05:18:43;27.70;99.90
44435;DHT22;30138;20.964;105.830;2023-04-16T05:23:50;27.80;99.90
44435;DHT22;30138;20.964;105.830;2023-04-16T05:28:59;27.80;99.90
44435;DHT22;30138;20.964;105.830;2023-04-16T05:34:07;27.80;99.90
44435;DHT22;30138;20.964;105.830;2023-04-16T05:39:15;27.80;99.90
44435;DHT22;30138;20.964;105.830;2023-04-16T05:44:25;27.90;99.90
44435;DHT22;30138;20.964;105.830;2023-04-16T05:49:32;27.90;99.90
44435;DHT22;30138;20.964;105.830;2023-04-16T05:54:39;27.90;99.90
44435;DHT22;30138;20.964;105.830;2023-04-16T05:59:49;28.00;99.90
44435;DHT22;30138;20.964;105.830;2023-04-16T06:04:58;28.00;99.90
44435;DHT22;30138;20.964;105.830;2023-04-16T06:10:08;28.10;99.90
44435;DHT22;30138;20.964;105.830;2023-04-16T06:15:17;28.10;99.90
44435;DHT22;30138;20.964;105.830;2023-04-16T06:20:24;28.10;99.90
44435;DHT22;30138;20.964;105.830;2023-04-16T06:25:31;28.10;99.90
44435;DHT22;30138;20.964;105.830;2023-04-16T06:30:41;28.20;99.90
44435;DHT22;30138;20.964;105.830;2023-04-16T06:35:47;28.20;99.90
44435;DHT22;30138;20.964;105.830;2023-04-16T06:40:55;28.20;99.90
44435;DHT22;30138;20.964;105.830;2023-04-16T06:46:04;28.20;99.90
44435;DHT22;30138;20.964;105.830;2023-04-16T06:51:11;28.30;99.90
44435;DHT22;30138;20.964;105.830;2023-04-16T06:56:19;28.30;99.90
44435;DHT22;30138;20.964;105.830;2023-04-16T07:01:28;28.30;99.90
44435;DHT22;30138;20.964;105.830;2023-04-16T07:06:35;28.30;99.90
44435;DHT22;30138;20.964;105.830;2023-04-16T07:11:42;28.30;99.90
44435;DHT22;30138;20.964;105.830;2023-04-16T07:16:59;28.30;99.90
44435;DHT22;30138;20.964;105.830;2023-04-16T07:22:06;28.30;99.90
44435;DHT22;30138;20.964;105.830;2023-04-16T07:27:12;28.30;99.90
44435;DHT22;30138;20.964;105.830;2023-04-16T07:32:22;28.30;99.90
44435;DHT22;30138;20.964;105.830;2023-04-16T07:37:29;28.30;99.90
44435;DHT22;30138;20.964;105.830;2023-04-16T07:42:36;28.30;99.90
44435;DHT22;30138;20.964;105.830;2023-04-16T07:47:45;28.30;99.90
44435;DHT22;30138;20.964;105.830;2023-04-16T07:52:52;28.30;99.90
44435;DHT22;30138;20.964;105.830;2023-04-16T07:57:59;28.30;99.90
44435;DHT22;30138;20.964;105.830;2023-04-16T08:03:10;28.30;99.90
44435;DHT22;30138;20.964;105.830;2023-04-16T08:08:17;28.30;99.90
44435;DHT22;30138;20.964;105.830;2023-04-16T08:13:25;28.30;99.90
44435;DHT22;30138;20.964;105.830;2023-04-16T08:18:34;28.30;99.90
44435;DHT22;30138;20.964;105.830;2023-04-16T08:23:42;28.30;99.90
44435;DHT22;30138;20.964;105.830;2023-04-16T08:28:50;28.30;99.90
44435;DHT22;30138;20.964;105.830;2023-04-16T08:34:00;28.40;99.90
44435;DHT22;30138;20.964;105.830;2023-04-16T08:39:07;28.40;99.90
44435;DHT22;30138;20.964;105.830;2023-04-16T08:44:20;28.40;99.90
44435;DHT22;30138;20.964;105.830;2023-04-16T08:49:36;28.40;99.90
44435;DHT22;30138;20.964;105.830;2023-04-16T08:54:58;28.40;99.90
44435;DHT22;30138;20.964;105.830;2023-04-16T09:00:11;28.40;99.90
44435;DHT22;30138;20.964;105.830;2023-04-16T09:05:25;28.40;99.90
44435;DHT22;30138;20.964;105.830;2023-04-16T09:10:34;28.40;99.90
44435;DHT22;30138;20.964;105.830;2023-04-16T09:15:41;28.40;99.90
44435;DHT22;30138;20.964;105.830;2023-04-16T09:20:50;28.40;99.90
44435;DHT22;30138;20.964;105.830;2023-04-16T09:25:59;28.40;99.90
44435;DHT22;30138;20.964;105.830;2023-04-16T09:31:10;28.40;99.90
44435;DHT22;30138;20.964;105.830;2023-04-16T09:36:22;28.40;99.90
44435;DHT22;30138;20.964;105.830;2023-04-16T09:41:30;28.40;99.90
44435;DHT22;30138;20.964;105.830;2023-04-16T09:46:42;28.40;99.90
44435;DHT22;30138;20.964;105.830;2023-04-16T09:51:50;28.40;99.90
44435;DHT22;30138;20.964;105.830;2023-04-16T09:57:01;28.40;99.90
44435;DHT22;30138;20.964;105.830;2023-04-16T10:02:08;28.40;99.90
44435;DHT22;30138;20.964;105.830;2023-04-16T10:07:18;28.40;99.90
44435;DHT22;30138;20.964;105.830;2023-04-16T10:12:25;28.40;99.90
44435;DHT22;30138;20.964;105.830;2023-04-16T10:17:33;28.40;99.90
44435;DHT22;30138;20.964;105.830;2023-04-16T10:22:42;28.40;99.90
44435;DHT22;30138;20.964;105.830;2023-04-16T10:27:49;28.40;99.90
44435;DHT22;30138;20.964;105.830;2023-04-16T10:32:57;28.40;99.90
44435;DHT22;30138;20.964;105.830;2023-04-16T10:38:24;28.40;99.90
44435;DHT22;30138;20.964;105.830;2023-04-16T10:43:38;28.30;99.90
44435;DHT22;30138;20.964;105.830;2023-04-16T10:48:46;28.30;99.90
44435;DHT22;30138;20.964;105.830;2023-04-16T10:53:56;28.40;99.90
44435;DHT22;30138;20.964;105.830;2023-04-16T10:59:10;28.40;99.90
44435;DHT22;30138;20.964;105.830;2023-04-16T11:04:43;28.40;99.90
44435;DHT22;30138;20.964;105.830;2023-04-16T11:09:56;28.40;99.90
44435;DHT22;30138;20.964;105.830;2023-04-16T11:15:05;28.40;99.90
44435;DHT22;30138;20.964;105.830;2023-04-16T11:20:16;28.40;99.90
44435;DHT22;30138;20.964;105.830;2023-04-16T11:25:26;28.30;99.90
44435;DHT22;30138;20.964;105.830;2023-04-16T11:30:35;28.40;99.90
44435;DHT22;30138;20.964;105.830;2023-04-16T11:35:58;28.30;99.90
44435;DHT22;30138;20.964;105.830;2023-04-16T11:41:06;28.40;99.90
44435;DHT22;30138;20.964;105.830;2023-04-16T11:46:14;28.30;99.90
44435;DHT22;30138;20.964;105.830;2023-04-16T11:51:21;28.30;99.90
44435;DHT22;30138;20.964;105.830;2023-04-16T11:56:32;28.40;99.90
44435;DHT22;30138;20.964;105.830;2023-04-16T12:01:41;28.30;99.90
44435;DHT22;30138;20.964;105.830;2023-04-16T12:07:08;28.30;99.90
44435;DHT22;30138;20.964;105.830;2023-04-16T12:12:28;28.30;99.90
44435;DHT22;30138;20.964;105.830;2023-04-16T12:17:36;28.30;99.90
44435;DHT22;30138;20.964;105.830;2023-04-16T12:22:45;28.20;99.90
44435;DHT22;30138;20.964;105.830;2023-04-16T12:27:56;28.20;99.90
44435;DHT22;30138;20.964;105.830;2023-04-16T12:33:16;28.20;99.90
44435;DHT22;30138;20.964;105.830;2023-04-16T12:38:23;28.20;99.90
44435;DHT22;30138;20.964;105.830;2023-04-16T12:43:32;28.20;99.90
44435;DHT22;30138;20.964;105.830;2023-04-16T12:48:39;28.10;99.90
44435;DHT22;30138;20.964;105.830;2023-04-16T12:53:46;28.10;99.90
44435;DHT22;30138;20.964;105.830;2023-04-16T12:58:56;28.10;99.90
44435;DHT22;30138;20.964;105.830;2023-04-16T13:04:03;28.10;99.90
44435;DHT22;30138;20.964;105.830;2023-04-16T13:09:10;28.10;99.90
44435;DHT22;30138;20.964;105.830;2023-04-16T13:14:19;28.00;99.90
44435;DHT22;30138;20.964;105.830;2023-04-16T13:19:27;28.00;99.90
44435;DHT22;30138;20.964;105.830;2023-04-16T13:24:35;28.00;99.90
44435;DHT22;30138;20.964;105.830;2023-04-16T13:29:49;28.00;99.90
44435;DHT22;30138;20.964;105.830;2023-04-16T13:34:57;28.00;99.90
44435;DHT22;30138;20.964;105.830;2023-04-16T13:40:04;28.00;99.90
44435;DHT22;30138;20.964;105.830;2023-04-16T13:45:14;28.00;99.90
44435;DHT22;30138;20.964;105.830;2023-04-16T13:50:22;27.90;99.90
44435;DHT22;30138;20.964;105.830;2023-04-16T13:55:30;27.90;99.90
44435;DHT22;30138;20.964;105.830;2023-04-16T14:00:41;27.90;99.90
44435;DHT22;30138;20.964;105.830;2023-04-16T14:05:49;27.90;99.90
44435;DHT22;30138;20.964;105.830;2023-04-16T14:10:56;27.90;99.90
44435;DHT22;30138;20.964;105.830;2023-04-16T14:16:05;27.90;99.90
44435;DHT22;30138;20.964;105.830;2023-04-16T14:21:13;27.90;99.90
44435;DHT22;30138;20.964;105.830;2023-04-16T14:26:20;27.90;99.90
44435;DHT22;30138;20.964;105.830;2023-04-16T14:31:28;27.90;99.90
44435;DHT22;30138;20.964;105.830;2023-04-16T14:36:36;27.90;99.90
44435;DHT22;30138;20.964;105.830;2023-04-16T14:41:43;27.90;99.90
44435;DHT22;30138;20.964;105.830;2023-04-16T14:46:52;27.90;99.90
44435;DHT22;30138;20.964;105.830;2023-04-16T14:51:59;27.90;99.90
44435;DHT22;30138;20.964;105.830;2023-04-16T14:57:08;27.90;99.90
44435;DHT22;30138;20.964;105.830;2023-04-16T15:02:17;27.90;99.90
44435;DHT22;30138;20.964;105.830;2023-04-16T15:07:25;27.90;99.90
44435;DHT22;30138;20.964;105.830;2023-04-16T15:12:31;27.90;99.90
44435;DHT22;30138;20.964;105.830;2023-04-16T15:17:40;27.90;99.90
44435;DHT22;30138;20.964;105.830;2023-04-16T15:22:47;27.90;99.90
44435;DHT22;30138;20.964;105.830;2023-04-16T15:27:54;27.90;99.90
44435;DHT22;30138;20.964;105.830;2023-04-16T15:33:06;27.90;99.90
44435;DHT22;30138;20.964;105.830;2023-04-16T15:38:17;27.90;99.90
44435;DHT22;30138;20.964;105.830;2023-04-16T15:43:27;27.80;99.90
44435;DHT22;30138;20.964;105.830;2023-04-16T15:48:36;27.90;99.90
44435;DHT22;30138;20.964;105.830;2023-04-16T15:53:43;27.90;99.90
44435;DHT22;30138;20.964;105.830;2023-04-16T15:58:51;27.90;99.90
44435;DHT22;30138;20.964;105.830;2023-04-16T16:04:01;27.90;99.90
44435;DHT22;30138;20.964;105.830;2023-04-16T16:09:08;27.90;99.90
44435;DHT22;30138;20.964;105.830;2023-04-16T16:14:16;27.90;99.90
44435;DHT22;30138;20.964;105.830;2023-04-16T16:19:24;27.90;99.90
44435;DHT22;30138;20.964;105.830;2023-04-16T16:24:31;27.80;99.90
44435;DHT22;30138;20.964;105.830;2023-04-16T16:29:39;27.80;99.90
44435;DHT22;30138;20.964;105.830;2023-04-16T16:35:19;27.80;99.90
44435;DHT22;30138;20.964;105.830;2023-04-16T16:40:26;27.80;99.90
44435;DHT22;30138;20.964;105.830;2023-04-16T16:45:33;27.70;99.90
44435;DHT22;30138;20.964;105.830;2023-04-16T16:50:42;27.70;99.90
44435;DHT22;30138;20.964;105.830;2023-04-16T17:01:21;27.60;99.90
44435;DHT22;30138;20.964;105.830;2023-04-16T17:06:31;27.60;99.90
44435;DHT22;30138;20.964;105.830;2023-04-16T17:11:38;27.60;99.90
44435;DHT22;30138;20.964;105.830;2023-04-16T17:16:45;27.60;99.90
44435;DHT22;30138;20.964;105.830;2023-04-16T17:21:53;27.60;99.90
44435;DHT22;30138;20.964;105.830;2023-04-16T17:27:01;27.60;99.90
44435;DHT22;30138;20.964;105.830;2023-04-16T17:32:08;27.60;99.90
44435;DHT22;30138;20.964;105.830;2023-04-16T17:37:17;27.50;99.90
44435;DHT22;30138;20.964;105.830;2023-04-16T17:42:23;27.50;99.90
44435;DHT22;30138;20.964;105.830;2023-04-16T17:47:34;27.50;99.90
44435;DHT22;30138;20.964;105.830;2023-04-16T17:52:42;27.50;99.90
44435;DHT22;30138;20.964;105.830;2023-04-16T17:57:49;27.50;99.90
44435;DHT22;30138;20.964;105.830;2023-04-16T18:02:55;27.50;99.90
44435;DHT22;30138;20.964;105.830;2023-04-16T18:08:04;27.40;99.90
44435;DHT22;30138;20.964;105.830;2023-04-16T18:13:11;27.40;99.90
44435;DHT22;30138;20.964;105.830;2023-04-16T18:18:18;27.40;99.90
44435;DHT22;30138;20.964;105.830;2023-04-16T18:23:27;27.40;99.90
44435;DHT22;30138;20.964;105.830;2023-04-16T18:28:34;27.40;99.90
44435;DHT22;30138;20.964;105.830;2023-04-16T18:33:41;27.40;99.90
44435;DHT22;30138;20.964;105.830;2023-04-16T18:38:50;27.40;99.90
44435;DHT22;30138;20.964;105.830;2023-04-16T18:43:58;27.40;99.90
44435;DHT22;30138;20.964;105.830;2023-04-16T18:49:06;27.40;99.90
44435;DHT22;30138;20.964;105.830;2023-04-16T18:54:15;27.30;99.90
44435;DHT22;30138;20.964;105.830;2023-04-16T18:59:22;27.30;99.90
44435;DHT22;30138;20.964;105.830;2023-04-16T19:04:29;27.30;99.90
44435;DHT22;30138;20.964;105.830;2023-04-16T19:09:38;27.30;99.90
44435;DHT22;30138;20.964;105.830;2023-04-16T19:14:49;27.30;99.90
44435;DHT22;30138;20.964;105.830;2023-04-16T19:19:55;27.30;99.90
44435;DHT22;30138;20.964;105.830;2023-04-16T19:25:05;27.30;99.90
44435;DHT22;30138;20.964;105.830;2023-04-16T19:30:13;27.20;99.90
44435;DHT22;30138;20.964;105.830;2023-04-16T19:35:20;27.20;99.90
44435;DHT22;30138;20.964;105.830;2023-04-16T19:40:29;27.20;99.90
44435;DHT22;30138;20.964;105.830;2023-04-16T19:45:41;27.20;99.90
44435;DHT22;30138;20.964;105.830;2023-04-16T19:50:49;27.20;99.90
44435;DHT22;30138;20.964;105.830;2023-04-16T19:56:02;27.20;99.90
44435;DHT22;30138;20.964;105.830;2023-04-16T20:01:09;27.10;99.90
44435;DHT22;30138;20.964;105.830;2023-04-16T20:06:16;27.20;99.90
44435;DHT22;30138;20.964;105.830;2023-04-16T20:11:25;27.20;99.90
44435;DHT22;30138;20.964;105.830;2023-04-16T20:16:32;27.10;99.90
44435;DHT22;30138;20.964;105.830;2023-04-16T20:21:40;27.20;99.90
44435;DHT22;30138;20.964;105.830;2023-04-16T20:26:49;27.20;99.90
44435;DHT22;30138;20.964;105.830;2023-04-16T20:31:56;27.10;99.90
44435;DHT22;30138;20.964;105.830;2023-04-16T20:37:03;27.10;99.90
44435;DHT22;30138;20.964;105.830;2023-04-16T20:42:11;27.10;99.90
44435;DHT22;30138;20.964;105.830;2023-04-16T20:47:18;27.10;99.90
44435;DHT22;30138;20.964;105.830;2023-04-16T20:52:25;27.10;99.90
44435;DHT22;30138;20.964;105.830;2023-04-16T20:57:34;27.10;99.90
44435;DHT22;30138;20.964;105.830;2023-04-16T21:02:41;27.10;99.90
44435;DHT22;30138;20.964;105.830;2023-04-16T21:07:48;27.00;99.90
44435;DHT22;30138;20.964;105.830;2023-04-16T21:12:57;27.00;99.90
44435;DHT22;30138;20.964;105.830;2023-04-16T21:18:03;27.00;99.90
44435;DHT22;30138;20.964;105.830;2023-04-16T21:23:10;27.00;99.90
44435;DHT22;30138;20.964;105.830;2023-04-16T21:28:18;27.00;99.90
44435;DHT22;30138;20.964;105.830;2023-04-16T21:33:26;27.00;99.90
44435;DHT22;30138;20.964;105.830;2023-04-16T21:38:34;27.00;99.90
44435;DHT22;30138;20.964;105.830;2023-04-16T21:43:43;27.00;99.90
44435;DHT22;30138;20.964;105.830;2023-04-16T21:48:49;27.00;99.90
44435;DHT22;30138;20.964;105.830;2023-04-16T21:53:56;27.00;99.90
44435;DHT22;30138;20.964;105.830;2023-04-16T21:59:04;27.00;99.90
44435;DHT22;30138;20.964;105.830;2023-04-16T22:04:11;27.00;99.90
44435;DHT22;30138;20.964;105.830;2023-04-16T22:09:19;27.00;99.90
44435;DHT22;30138;20.964;105.830;2023-04-16T22:14:28;27.00;99.90
44435;DHT22;30138;20.964;105.830;2023-04-16T22:19:36;27.00;99.90
44435;DHT22;30138;20.964;105.830;2023-04-16T22:24:44;27.00;99.90
44435;DHT22;30138;20.964;105.830;2023-04-16T22:29:53;26.90;99.90
44435;DHT22;30138;20.964;105.830;2023-04-16T22:35:00;27.00;99.90
44435;DHT22;30138;20.964;105.830;2023-04-16T22:40:08;26.90;99.90
44435;DHT22;30138;20.964;105.830;2023-04-16T22:45:17;26.90;99.90
44435;DHT22;30138;20.964;105.830;2023-04-16T22:50:24;26.90;99.90
44435;DHT22;30138;20.964;105.830;2023-04-16T22:55:33;26.90;99.90
44435;DHT22;30138;20.964;105.830;2023-04-16T23:00:42;26.90;99.90
44435;DHT22;30138;20.964;105.830;2023-04-16T23:05:49;26.90;99.90
44435;DHT22;30138;20.964;105.830;2023-04-16T23:10:57;26.90;99.90
44435;DHT22;30138;20.964;105.830;2023-04-16T23:16:05;26.90;99.90
44435;DHT22;30138;20.964;105.830;2023-04-16T23:21:13;26.90;99.90
44435;DHT22;30138;20.964;105.830;2023-04-16T23:26:20;26.90;99.90
44435;DHT22;30138;20.964;105.830;2023-04-16T23:31:28;26.90;99.90
44435;DHT22;30138;20.964;105.830;2023-04-16T23:36:47;26.90;99.90
44435;DHT22;30138;20.964;105.830;2023-04-16T23:41:55;26.90;99.90
44435;DHT22;30138;20.964;105.830;2023-04-16T23:47:10;26.90;99.90
44435;DHT22;30138;20.964;105.830;2023-04-16T23:52:18;26.90;99.90
44435;DHT22;30138;20.964;105.830;2023-04-16T23:57:24;26.90;99.90
